Time;durP1;ratioP1;P1;durP2;ratioP2;P2;SDS_P1;SDS_P2;PMS_P1;PMS_P2;Temp;Humidity;BMP_temperature;BMP_pressure;BME280_temperature;BME280_humidity;BME280_pressure;Samples;Min_cycle;Max_cycle;Signal;HPM_P1;HPM_P2
2024/01/08 00:00:49;;;;;;;6.53;3.77;;;-0.90;99.70;;;;;;6311368;22;20019;-73
2024/01/08 00:03:16;;;;;;;6.60;3.77;;;-0.90;99.50;;;;;;6311610;22;20389;-71
2024/01/08 00:05:43;;;;;;;5.23;3.03;;;-0.90;99.50;;;;;;6260311;22;20022;-71
2024/01/08 00:08:10;;;;;;;5.53;3.40;;;-0.90;99.50;;;;;;6311278;22;20053;-72
2024/01/08 00:10:38;;;;;;;5.73;3.43;;;-0.90;99.40;;;;;;6311723;22;20033;-72
2024/01/08 00:13:09;;;;;;;5.80;3.33;;;-0.90;99.40;;;;;;6311706;22;20015;-73
2024/01/08 00:15:36;;;;;;;5.30;3.07;;;-0.90;99.40;;;;;;6286503;22;20449;-72
2024/01/08 00:18:03;;;;;;;6.10;3.17;;;-0.90;99.40;;;;;;6260111;22;20022;-73
2024/01/08 00:20:31;;;;;;;5.07;2.80;;;-0.90;99.40;;;;;;6285968;22;20011;-73
2024/01/08 00:22:58;;;;;;;4.50;2.40;;;-0.90;99.50;;;;;;6285716;22;20023;-73
2024/01/08 00:25:25;;;;;;;5.17;2.90;;;-1.00;99.80;;;;;;6285431;22;20038;-73
2024/01/08 00:27:54;;;;;;;7.07;3.30;;;-1.00;99.50;;;;;;6338865;22;20018;-73
2024/01/08 00:30:21;;;;;;;6.03;3.00;;;-1.10;99.60;;;;;;6285737;22;20395;-73
2024/01/08 00:32:48;;;;;;;5.93;3.33;;;-1.20;99.60;;;;;;6311558;22;20072;-73
2024/01/08 00:35:15;;;;;;;5.00;2.53;;;-1.20;99.70;;;;;;6260510;22;20387;-72
2024/01/08 00:37:42;;;;;;;5.33;2.63;;;-1.20;99.70;;;;;;6285500;22;20018;-72
2024/01/08 00:40:10;;;;;;;5.30;2.60;;;-1.30;99.80;;;;;;6336996;22;20407;-72
2024/01/08 00:42:38;;;;;;;5.33;2.30;;;-1.40;99.90;;;;;;6311012;22;20019;-72
2024/01/08 00:45:07;;;;;;;4.43;2.33;;;-1.40;99.90;;;;;;6310957;22;20029;-72
2024/01/08 00:47:35;;;;;;;5.97;2.93;;;-1.40;99.90;;;;;;6285355;22;20023;-72
2024/01/08 00:50:03;;;;;;;4.87;2.63;;;-1.50;99.90;;;;;;6311231;22;20019;-72
2024/01/08 00:52:30;;;;;;;4.40;2.67;;;-1.50;99.90;;;;;;6285504;22;20022;-72
2024/01/08 00:55:04;;;;;;;4.57;2.60;;;-1.60;99.90;;;;;;6336835;22;20022;-72
2024/01/08 00:57:34;;;;;;;3.90;1.90;;;-1.60;99.90;;;;;;6310648;22;20496;-72
2024/01/08 01:00:02;;;;;;;5.20;2.27;;;-1.60;99.90;;;;;;6310972;22;20027;-72
2024/01/08 01:02:30;;;;;;;4.37;2.43;;;-1.70;99.90;;;;;;6338252;22;20018;-72
2024/01/08 01:04:57;;;;;;;4.10;1.70;;;-1.70;99.90;;;;;;6311044;22;20080;-72
2024/01/08 01:07:26;;;;;;;4.37;2.23;;;-1.70;99.90;;;;;;6311111;22;20014;-72
2024/01/08 01:09:54;;;;;;;4.20;1.97;;;-1.80;99.90;;;;;;6310653;22;20019;-72
2024/01/08 01:12:21;;;;;;;3.73;2.10;;;-1.80;99.90;;;;;;6310969;22;20015;-72
2024/01/08 01:14:48;;;;;;;5.57;2.30;;;-1.80;99.90;;;;;;6311215;22;20094;-72
2024/01/08 01:17:15;;;;;;;5.50;2.70;;;-1.80;99.90;;;;;;6285444;22;20018;-73
2024/01/08 01:19:43;;;;;;;5.50;3.03;;;-1.80;99.90;;;;;;6285178;22;20019;-72
2024/01/08 01:22:10;;;;;;;6.60;3.00;;;-1.90;99.90;;;;;;6285113;22;20018;-72
2024/01/08 01:24:37;;;;;;;6.33;2.83;;;-1.90;99.90;;;;;;6338171;22;20390;-72
2024/01/08 01:27:04;;;;;;;4.43;2.57;;;-1.90;99.90;;;;;;6284852;22;20326;-72
2024/01/08 01:29:31;;;;;;;4.73;2.20;;;-1.90;99.90;;;;;;6310380;22;20029;-72
2024/01/08 01:31:58;;;;;;;5.87;2.10;;;-1.90;99.90;;;;;;6285171;22;20023;-72
2024/01/08 01:34:25;;;;;;;3.47;1.40;;;-1.70;99.90;;;;;;6284919;22;20107;-72
2024/01/08 01:36:52;;;;;;;3.97;2.07;;;-1.50;99.90;;;;;;6310733;22;20022;-72
2024/01/08 01:39:19;;;;;;;5.67;2.17;;;-1.50;99.90;;;;;;6310709;22;20038;-72
2024/01/08 01:41:47;;;;;;;3.10;1.67;;;-1.60;99.80;;;;;;6284967;22;20022;-72
2024/01/08 01:44:14;;;;;;;4.53;2.23;;;-1.60;99.90;;;;;;6284741;22;20066;-72
2024/01/08 01:46:51;;;;;;;4.77;2.10;;;-1.70;99.90;;;;;;6310676;22;20011;-73
2024/01/08 01:49:21;;;;;;;5.07;2.10;;;-1.80;99.90;;;;;;6310929;22;20042;-73
2024/01/08 01:51:48;;;;;;;5.77;2.63;;;-1.90;99.90;;;;;;6284760;22;20019;-73
2024/01/08 01:54:18;;;;;;;5.33;2.87;;;-1.90;99.90;;;;;;6338186;22;20318;-73
2024/01/08 01:56:48;;;;;;;4.30;2.33;;;-2.00;99.90;;;;;;6310336;22;20022;-73
2024/01/08 01:59:16;;;;;;;3.93;1.90;;;-1.90;99.90;;;;;;6338100;22;20018;-73
2024/01/08 02:01:45;;;;;;;5.40;2.60;;;-2.00;99.90;;;;;;6310700;22;20326;-72
2024/01/08 02:04:14;;;;;;;4.73;1.97;;;-2.00;99.90;;;;;;6310585;22;20105;-73
2024/01/08 02:06:44;;;;;;;6.03;3.30;;;-2.00;99.90;;;;;;6285353;22;20014;-73
2024/01/08 02:09:15;;;;;;;5.40;2.27;;;-2.00;99.90;;;;;;6310604;22;20030;-73
2024/01/08 02:11:43;;;;;;;5.13;2.25;;;-2.00;99.90;;;;;;6310127;22;20048;-72
2024/01/08 02:14:15;;;;;;;5.87;2.73;;;-2.10;99.90;;;;;;6286831;22;20441;-73
2024/01/08 02:16:42;;;;;;;5.97;2.45;;;-2.10;99.90;;;;;;6287398;22;20397;-73
2024/01/08 02:19:11;;;;;;;4.40;2.20;;;-2.10;99.90;;;;;;6287100;22;20015;-73
2024/01/08 02:21:38;;;;;;;4.90;2.07;;;-2.10;99.90;;;;;;6286800;22;20098;-73
2024/01/08 02:24:11;;;;;;;5.27;1.77;;;-2.10;99.90;;;;;;6312336;22;20023;-72
2024/01/08 02:26:38;;;;;;;4.97;2.20;;;-2.10;99.90;;;;;;6286808;22;20046;-72
2024/01/08 02:29:05;;;;;;;6.23;2.10;;;-2.10;99.90;;;;;;6312169;22;20110;-72
2024/01/08 02:31:32;;;;;;;5.40;2.27;;;-2.10;99.90;;;;;;6312556;22;20506;-73
2024/01/08 02:33:59;;;;;;;4.50;2.07;;;-2.10;99.90;;;;;;6339907;22;20014;-73
2024/01/08 02:36:27;;;;;;;8.97;2.93;;;-2.20;99.90;;;;;;6287207;22;20018;-73
2024/01/08 02:38:54;;;;;;;5.90;2.10;;;-2.20;99.90;;;;;;6286346;22;20025;-73
2024/01/08 02:41:21;;;;;;;5.93;2.40;;;-2.10;99.90;;;;;;6312437;22;20098;-72
2024/01/08 02:43:48;;;;;;;5.10;2.17;;;-2.20;99.90;;;;;;6339578;22;20011;-72
2024/01/08 02:46:15;;;;;;;4.97;2.03;;;-2.20;99.90;;;;;;6287298;22;20011;-73
2024/01/08 02:48:42;;;;;;;5.17;2.27;;;-2.10;99.90;;;;;;6286261;22;20091;-73
2024/01/08 02:51:09;;;;;;;5.53;2.20;;;-2.10;99.90;;;;;;6312453;22;20044;-73
2024/01/08 02:53:36;;;;;;;5.97;2.33;;;-2.10;99.90;;;;;;6286526;22;20027;-73
2024/01/08 02:56:04;;;;;;;4.63;2.07;;;-2.00;99.90;;;;;;6286260;22;20058;-73
2024/01/08 02:58:31;;;;;;;4.93;2.63;;;-1.90;99.90;;;;;;6286140;22;20090;-73
2024/01/08 03:01:01;;;;;;;4.50;2.00;;;-1.90;99.90;;;;;;6312322;22;20014;-73
2024/01/08 03:03:28;;;;;;;4.37;1.90;;;-1.90;99.90;;;;;;6339383;22;20042;-74
2024/01/08 03:05:55;;;;;;;4.07;1.80;;;-1.90;99.90;;;;;;6311610;22;20018;-73
2024/01/08 03:08:22;;;;;;;5.40;2.37;;;-1.80;99.90;;;;;;6286378;22;20462;-73
2024/01/08 03:10:49;;;;;;;6.00;2.20;;;-1.80;99.90;;;;;;6286397;22;20018;-74
2024/01/08 03:13:16;;;;;;;3.97;2.00;;;-1.80;99.90;;;;;;6311763;22;20084;-74
2024/01/08 03:15:43;;;;;;;4.37;1.87;;;-1.70;99.90;;;;;;6337784;22;20029;-74
2024/01/08 03:18:10;;;;;;;3.87;1.80;;;-1.70;99.90;;;;;;6286487;22;20041;-73
2024/01/08 03:20:38;;;;;;;4.97;1.87;;;-1.70;99.90;;;;;;6285837;22;20021;-74
2024/01/08 03:23:09;;;;;;;5.13;2.10;;;-1.70;99.90;;;;;;6312230;22;20075;-74
2024/01/08 03:25:36;;;;;;;4.23;1.90;;;-1.60;99.90;;;;;;6311254;22;20023;-73
2024/01/08 03:28:03;;;;;;;4.97;2.03;;;-1.50;99.90;;;;;;6311886;22;20018;-73
2024/01/08 03:30:31;;;;;;;4.47;1.43;;;-1.50;99.90;;;;;;6312111;22;20021;-73
2024/01/08 03:32:59;;;;;;;3.77;1.97;;;-1.50;99.90;;;;;;6286565;22;20029;-73
2024/01/08 03:35:27;;;;;;;6.27;2.97;;;-1.50;99.90;;;;;;6286763;22;20023;-73
2024/01/08 03:37:55;;;;;;;5.20;2.00;;;-1.50;99.90;;;;;;6286397;22;20064;-74
2024/01/08 03:40:22;;;;;;;4.27;1.90;;;-1.40;99.90;;;;;;6311469;22;20042;-74
2024/01/08 03:42:49;;;;;;;6.20;2.40;;;-1.40;99.90;;;;;;6286461;22;20067;-73
2024/01/08 03:45:16;;;;;;;4.90;2.50;;;-1.40;99.90;;;;;;6337623;22;20388;-73
2024/01/08 03:47:43;;;;;;;7.23;2.93;;;-1.40;99.90;;;;;;6285798;22;20026;-74
2024/01/08 03:50:10;;;;;;;4.57;2.10;;;-1.40;99.90;;;;;;6286154;22;20018;-73
2024/01/08 03:52:37;;;;;;;6.23;2.30;;;-1.30;99.90;;;;;;6286417;22;20019;-73
2024/01/08 03:55:06;;;;;;;5.13;2.03;;;-1.30;99.90;;;;;;6285816;22;20022;-73
2024/01/08 03:57:33;;;;;;;4.80;2.40;;;-1.30;99.90;;;;;;6285961;22;20022;-73
2024/01/08 04:00:00;;;;;;;5.53;2.37;;;-1.30;99.90;;;;;;6338868;22;20010;-73
2024/01/08 04:02:40;;;;;;;5.53;2.73;;;-1.30;99.90;;;;;;6290216;22;20029;-73
2024/01/08 04:05:11;;;;;;;5.50;2.40;;;-1.30;99.90;;;;;;6338792;22;20023;-73
2024/01/08 04:07:38;;;;;;;6.50;2.73;;;-1.30;99.90;;;;;;6312474;22;20018;-73
2024/01/08 04:10:07;;;;;;;6.83;3.43;;;-1.20;99.90;;;;;;6285687;22;20022;-73
2024/01/08 04:12:34;;;;;;;8.20;3.73;;;-1.30;99.90;;;;;;6285947;22;20502;-73
2024/01/08 04:15:01;;;;;;;6.03;2.80;;;-1.20;99.90;;;;;;6311757;22;20383;-73
2024/01/08 04:17:28;;;;;;;8.20;3.53;;;-1.30;99.90;;;;;;6338815;22;20089;-73
2024/01/08 04:19:55;;;;;;;7.67;4.50;;;-1.30;99.90;;;;;;6285544;22;20395;-74
2024/01/08 04:22:22;;;;;;;6.97;3.17;;;-1.30;99.90;;;;;;6311276;22;20042;-74
2024/01/08 04:24:49;;;;;;;6.97;3.13;;;-1.20;99.90;;;;;;6286020;22;20018;-74
2024/01/08 04:27:16;;;;;;;6.83;3.43;;;-1.20;99.90;;;;;;6285947;22;20433;-73
2024/01/08 04:29:43;;;;;;;8.57;3.57;;;-1.20;99.90;;;;;;6285547;22;20029;-74
2024/01/08 04:32:10;;;;;;;7.10;3.80;;;-1.20;99.90;;;;;;6285536;22;20027;-73
2024/01/08 04:34:37;;;;;;;5.90;3.37;;;-1.20;99.90;;;;;;6311253;22;20030;-74
2024/01/08 04:37:04;;;;;;;6.43;3.60;;;-1.20;99.90;;;;;;6310563;22;20023;-72
2024/01/08 04:39:32;;;;;;;6.27;3.80;;;-1.20;99.90;;;;;;6311478;22;20459;-72
2024/01/08 04:41:59;;;;;;;7.97;4.00;;;-1.20;99.90;;;;;;6311155;22;20395;-73
2024/01/08 04:44:26;;;;;;;9.13;4.00;;;-1.20;99.90;;;;;;6311490;22;20022;-73
2024/01/08 04:46:53;;;;;;;6.63;3.67;;;-1.20;99.90;;;;;;6285858;22;20019;-74
2024/01/08 04:49:21;;;;;;;7.03;2.90;;;-1.20;99.90;;;;;;6311522;22;20029;-73
2024/01/08 04:51:50;;;;;;;6.13;3.20;;;-1.10;99.90;;;;;;6338664;22;20072;-73
2024/01/08 04:54:17;;;;;;;6.70;4.10;;;-1.10;99.90;;;;;;6311001;22;20029;-74
2024/01/08 04:56:45;;;;;;;6.33;3.13;;;-1.20;99.90;;;;;;6310838;22;20031;-74
2024/01/08 04:59:12;;;;;;;9.13;3.70;;;-1.10;99.90;;;;;;6310873;22;20378;-74
2024/01/08 05:01:40;;;;;;;8.10;3.87;;;-1.10;99.90;;;;;;6310657;22;20436;-74
2024/01/08 05:04:07;;;;;;;6.83;3.23;;;-1.10;99.90;;;;;;6285669;22;20018;-74
2024/01/08 05:06:38;;;;;;;7.97;3.40;;;-1.10;99.90;;;;;;6310739;22;20021;-74
2024/01/08 05:09:38;;;;;;;5.53;3.13;;;-1.10;99.90;;;;;;5058948;28;20387;-74
2024/01/08 05:12:06;;;;;;;5.70;2.73;;;-1.10;99.90;;;;;;5060435;28;20037;-73
2024/01/08 05:14:33;;;;;;;7.77;3.40;;;-1.10;99.90;;;;;;5016757;28;20383;-73
2024/01/08 05:17:00;;;;;;;6.40;3.03;;;-1.10;99.90;;;;;;5048734;28;20470;-73
2024/01/08 05:19:27;;;;;;;8.10;3.67;;;-1.10;99.90;;;;;;5048294;28;20115;-73
2024/01/08 05:21:54;;;;;;;5.43;2.23;;;-1.00;99.90;;;;;;5048210;28;20041;-74
2024/01/08 05:24:21;;;;;;;8.97;3.50;;;-1.00;99.90;;;;;;5046979;28;20419;-74
2024/01/08 05:26:48;;;;;;;6.07;3.03;;;-1.00;99.90;;;;;;5032177;28;20045;-74
2024/01/08 05:29:15;;;;;;;6.00;3.37;;;-1.00;99.90;;;;;;5020644;28;20489;-73
2024/01/08 05:31:42;;;;;;;6.53;3.00;;;-1.00;99.90;;;;;;5048114;28;20033;-74
2024/01/08 05:34:09;;;;;;;6.33;3.07;;;-1.00;99.90;;;;;;5031249;28;20400;-74
2024/01/08 05:36:39;;;;;;;6.57;3.00;;;-1.00;99.90;;;;;;5046583;28;20065;-74
2024/01/08 05:39:06;;;;;;;6.50;2.70;;;-1.00;99.90;;;;;;5046289;28;20539;-74
2024/01/08 05:41:37;;;;;;;5.47;2.70;;;-0.90;99.90;;;;;;5048310;28;20045;-74
2024/01/08 05:44:04;;;;;;;7.27;3.07;;;-0.90;99.90;;;;;;5048321;28;20087;-74
2024/01/08 05:46:32;;;;;;;5.90;2.43;;;-0.90;99.90;;;;;;5044507;28;20048;-74
2024/01/08 05:48:59;;;;;;;5.97;2.73;;;-0.90;99.90;;;;;;5028434;28;20064;-74
2024/01/08 05:51:30;;;;;;;6.60;2.97;;;-0.90;99.90;;;;;;5024802;28;20055;-73
2024/01/08 05:53:57;;;;;;;6.47;3.20;;;-0.90;99.90;;;;;;5022650;28;20041;-73
2024/01/08 05:56:25;;;;;;;6.43;2.50;;;-0.90;99.90;;;;;;5073303;28;20042;-73
2024/01/08 05:58:52;;;;;;;6.67;3.37;;;-0.90;99.90;;;;;;5044724;28;20037;-74
2024/01/08 06:01:19;;;;;;;6.70;3.17;;;-0.90;99.90;;;;;;5047695;28;20409;-74
2024/01/08 06:03:47;;;;;;;6.90;3.00;;;-0.90;99.90;;;;;;5047860;28;20057;-74
2024/01/08 06:06:14;;;;;;;9.03;3.97;;;-0.90;99.90;;;;;;5015105;28;20053;-74
2024/01/08 06:08:41;;;;;;;6.53;3.30;;;-0.90;99.90;;;;;;5046795;28;20054;-73
2024/01/08 06:11:09;;;;;;;7.23;2.77;;;-0.90;99.90;;;;;;5012644;28;20049;-74
2024/01/08 06:13:36;;;;;;;6.73;3.50;;;-0.90;99.90;;;;;;5028407;28;20045;-74
2024/01/08 06:16:03;;;;;;;6.37;3.70;;;-0.90;99.90;;;;;;5047219;28;20064;-74
2024/01/08 06:18:31;;;;;;;9.90;3.77;;;-0.90;99.90;;;;;;5031276;28;20045;-74
2024/01/08 06:20:58;;;;;;;6.73;3.53;;;-0.80;99.90;;;;;;5009914;28;20040;-74
2024/01/08 06:23:26;;;;;;;6.77;3.83;;;-0.80;99.90;;;;;;5024415;28;20132;-74
2024/01/08 06:25:54;;;;;;;7.23;3.30;;;-0.80;99.90;;;;;;5017524;28;20120;-74
2024/01/08 06:28:21;;;;;;;6.63;4.07;;;-0.80;99.90;;;;;;5012712;28;20037;-73
2024/01/08 06:30:48;;;;;;;7.30;3.23;;;-0.80;99.90;;;;;;5027711;28;20048;-74
2024/01/08 06:33:15;;;;;;;6.93;2.80;;;-0.70;99.90;;;;;;4997332;28;20044;-74
2024/01/08 06:35:43;;;;;;;6.90;3.20;;;-0.70;99.90;;;;;;4999898;28;20100;-74
2024/01/08 06:38:10;;;;;;;7.80;3.37;;;-0.70;99.90;;;;;;5024749;28;20048;-74
2024/01/08 06:40:37;;;;;;;7.10;3.33;;;-0.70;99.90;;;;;;5033268;28;20104;-74
2024/01/08 06:43:04;;;;;;;7.10;2.87;;;-0.70;99.90;;;;;;4972580;28;20050;-73
2024/01/08 06:45:31;;;;;;;7.10;2.97;;;-0.70;99.90;;;;;;5011004;28;20068;-74
2024/01/08 06:47:58;;;;;;;8.23;3.93;;;-0.70;99.90;;;;;;5032525;28;20041;-74
2024/01/08 06:50:25;;;;;;;9.10;3.67;;;-0.70;99.90;;;;;;5017701;28;20099;-74
2024/01/08 06:52:52;;;;;;;9.53;3.67;;;-0.70;99.90;;;;;;5020824;28;20437;-74
2024/01/08 06:55:20;;;;;;;8.03;4.43;;;-0.70;99.90;;;;;;5014028;28;20049;-74
2024/01/08 06:57:49;;;;;;;8.93;4.30;;;-0.70;99.90;;;;;;5007988;28;20042;-74
2024/01/08 07:00:18;;;;;;;7.60;3.40;;;-0.70;99.90;;;;;;4989971;28;20038;-74
2024/01/08 07:02:44;;;;;;;8.00;3.30;;;-0.70;99.90;;;;;;5012522;28;20099;-74
2024/01/08 07:05:12;;;;;;;10.20;4.63;;;-0.70;99.90;;;;;;5011837;28;20505;-75
2024/01/08 07:07:40;;;;;;;8.77;4.17;;;-0.70;99.90;;;;;;5016894;28;20119;-75
2024/01/08 07:10:08;;;;;;;9.20;3.70;;;-0.70;99.90;;;;;;4989612;28;20046;-75
2024/01/08 07:12:35;;;;;;;8.67;4.50;;;-0.70;99.90;;;;;;5025773;28;20033;-74
2024/01/08 07:15:03;;;;;;;8.23;4.03;;;-0.80;99.90;;;;;;5028356;28;20042;-73
2024/01/08 07:17:33;;;;;;;5.97;3.37;;;-0.70;99.90;;;;;;5032122;28;20063;-73
2024/01/08 07:20:00;;;;;;;8.07;4.60;;;-0.70;99.90;;;;;;5033204;28;20280;-73
2024/01/08 07:22:28;;;;;;;7.77;3.73;;;-0.70;99.90;;;;;;5000579;28;20056;-73
2024/01/08 07:24:54;;;;;;;7.73;3.40;;;-0.70;99.90;;;;;;5033105;28;20482;-73
2024/01/08 07:27:21;;;;;;;6.47;2.83;;;-0.70;99.90;;;;;;5028058;28;20049;-74
2024/01/08 07:29:48;;;;;;;8.00;3.97;;;-0.70;99.90;;;;;;4982460;28;20052;-74
2024/01/08 07:32:15;;;;;;;6.53;2.77;;;-0.70;99.90;;;;;;5028128;28;20025;-73
2024/01/08 07:34:42;;;;;;;6.60;3.17;;;-0.70;99.90;;;;;;4993032;28;20054;-73
2024/01/08 07:37:10;;;;;;;8.20;3.80;;;-0.70;99.90;;;;;;4993794;28;20049;-73
2024/01/08 07:39:37;;;;;;;7.23;3.43;;;-0.70;99.90;;;;;;5034097;28;20045;-73
2024/01/08 07:42:04;;;;;;;7.97;3.77;;;-0.70;99.90;;;;;;5000143;28;20494;-73
2024/01/08 07:44:31;;;;;;;6.00;3.10;;;-0.70;99.90;;;;;;5016393;28;20049;-73
2024/01/08 07:46:58;;;;;;;6.00;3.17;;;-0.70;99.90;;;;;;5007157;28;20069;-74
2024/01/08 07:49:27;;;;;;;6.07;3.13;;;-0.70;99.90;;;;;;5028962;28;20485;-73
2024/01/08 07:51:55;;;;;;;5.37;2.97;;;-0.70;99.90;;;;;;5032472;28;20053;-74
2024/01/08 07:54:22;;;;;;;8.23;4.20;;;-0.70;99.90;;;;;;5015861;28;20073;-74
2024/01/08 07:56:49;;;;;;;8.00;3.40;;;-0.60;99.90;;;;;;5015659;28;20482;-73
2024/01/08 07:59:28;;;;;;;7.67;3.50;;;-0.60;99.90;;;;;;5003275;28;20394;-73
2024/01/08 08:01:55;;;;;;;7.10;3.27;;;-0.70;99.90;;;;;;4999910;28;20041;-74
2024/01/08 08:04:22;;;;;;;7.83;3.60;;;-0.70;99.90;;;;;;5016074;28;20486;-74
2024/01/08 08:06:49;;;;;;;6.00;3.20;;;-0.60;99.90;;;;;;5033543;28;20386;-74
2024/01/08 08:09:16;;;;;;;7.60;3.60;;;-0.60;99.90;;;;;;5015505;28;20049;-74
2024/01/08 08:11:43;;;;;;;7.03;3.30;;;-0.60;99.90;;;;;;5011713;28;20143;-74
2024/01/08 08:14:10;;;;;;;5.60;2.90;;;-0.60;99.90;;;;;;4999641;28;20044;-74
2024/01/08 08:16:49;;;;;;;9.73;4.10;;;-0.60;99.90;;;;;;5014142;28;20092;-74
2024/01/08 08:19:16;;;;;;;7.57;3.57;;;-0.60;99.90;;;;;;5013413;28;20099;-74
2024/01/08 08:21:43;;;;;;;6.33;3.37;;;-0.60;99.90;;;;;;5027009;28;20060;-74
2024/01/08 08:24:14;;;;;;;6.23;2.93;;;-0.60;99.90;;;;;;5032063;28;20461;-74
2024/01/08 08:26:42;;;;;;;7.90;3.35;;;-0.60;99.90;;;;;;5027134;28;20133;-74
2024/01/08 08:29:09;;;;;;;7.07;3.43;;;-0.60;99.90;;;;;;5029745;28;20119;-74
2024/01/08 08:31:36;;;;;;;7.97;3.50;;;-0.60;99.90;;;;;;5015249;28;20072;-74
2024/01/08 08:34:03;;;;;;;6.77;3.37;;;-0.60;99.90;;;;;;5015504;28;20048;-74
2024/01/08 08:36:30;;;;;;;7.23;4.13;;;-0.50;99.90;;;;;;5031610;28;20045;-74
2024/01/08 08:38:57;;;;;;;8.30;3.33;;;-0.50;99.90;;;;;;4999252;28;20456;-74
2024/01/08 08:41:24;;;;;;;5.60;2.80;;;-0.50;99.90;;;;;;5013686;28;20551;-73
2024/01/08 08:43:53;;;;;;;6.57;3.07;;;-0.50;99.90;;;;;;4998225;28;20080;-73
2024/01/08 08:46:21;;;;;;;5.60;3.60;;;-0.50;99.90;;;;;;5028706;28;20046;-73
2024/01/08 08:48:48;;;;;;;6.17;3.13;;;-0.50;99.90;;;;;;5016900;28;20037;-74
2024/01/08 08:51:15;;;;;;;6.73;3.63;;;-0.50;99.90;;;;;;5028195;28;20045;-74
2024/01/08 08:53:42;;;;;;;8.13;4.00;;;-0.50;99.90;;;;;;5010946;28;20047;-73
2024/01/08 08:56:10;;;;;;;6.93;3.67;;;-0.50;99.90;;;;;;5012592;28;20092;-74
2024/01/08 08:58:37;;;;;;;7.63;4.17;;;-0.50;99.90;;;;;;4993149;28;20108;-73
2024/01/08 09:01:04;;;;;;;8.67;4.53;;;-0.50;99.90;;;;;;5021097;28;20052;-74
2024/01/08 09:03:32;;;;;;;7.70;4.17;;;-0.50;99.90;;;;;;5032486;28;20046;-73
2024/01/08 09:05:59;;;;;;;8.40;4.37;;;-0.50;99.90;;;;;;5032586;28;20049;-74
2024/01/08 09:08:27;;;;;;;8.13;4.53;;;-0.60;99.90;;;;;;4994690;28;20164;-74
2024/01/08 09:10:54;;;;;;;8.80;4.57;;;-0.60;99.90;;;;;;5031868;28;20065;-73
2024/01/08 09:13:21;;;;;;;8.03;3.83;;;-0.60;99.90;;;;;;5031259;28;20041;-74
2024/01/08 09:15:48;;;;;;;8.77;4.63;;;-0.50;99.90;;;;;;5011022;28;20061;-74
2024/01/08 09:18:15;;;;;;;7.73;4.53;;;-0.60;99.90;;;;;;5011416;28;20052;-74
2024/01/08 09:20:42;;;;;;;9.03;4.73;;;-0.60;99.90;;;;;;5014283;28;20080;-74
2024/01/08 09:23:10;;;;;;;7.33;3.90;;;-0.60;99.90;;;;;;5001472;28;20046;-74
2024/01/08 09:25:37;;;;;;;7.10;4.27;;;-0.60;99.90;;;;;;5004409;28;20073;-73
2024/01/08 09:28:04;;;;;;;7.17;4.33;;;-0.60;99.90;;;;;;5014510;28;20119;-79
2024/01/08 09:30:31;;;;;;;7.23;3.80;;;-0.50;99.90;;;;;;5011469;28;20140;-77
2024/01/08 09:32:58;;;;;;;8.23;3.77;;;-0.50;99.90;;;;;;5012315;28;20536;-76
2024/01/08 09:35:26;;;;;;;9.60;4.33;;;-0.40;99.90;;;;;;4998746;28;20092;-76
2024/01/08 09:37:53;;;;;;;8.47;4.33;;;-0.40;99.90;;;;;;4994408;28;20057;-77
2024/01/08 09:40:20;;;;;;;7.57;3.53;;;-0.40;99.90;;;;;;5017333;28;20132;-77
2024/01/08 09:42:52;;;;;;;7.00;3.67;;;-0.40;99.90;;;;;;5011337;28;20104;-77
2024/01/08 09:45:22;;;;;;;6.32;4.03;;;-0.30;99.90;;;;;;5029928;28;20060;-76
2024/01/08 09:47:50;;;;;;;6.40;3.53;;;-0.30;99.90;;;;;;5031032;28;20556;-77
2024/01/08 09:50:19;;;;;;;7.47;3.90;;;-0.30;99.90;;;;;;5031075;28;20462;-76
2024/01/08 09:52:47;;;;;;;7.30;3.97;;;-0.30;99.90;;;;;;5014887;28;20120;-77
2024/01/08 09:55:15;;;;;;;7.93;4.03;;;-0.30;99.90;;;;;;5019110;28;20132;-77
2024/01/08 09:57:42;;;;;;;7.80;3.57;;;-0.20;99.90;;;;;;4994074;28;20038;-76
2024/01/08 10:00:10;;;;;;;6.97;3.73;;;-0.20;99.90;;;;;;5013354;28;20041;-77
2024/01/08 10:02:40;;;;;;;6.40;3.97;;;-0.20;99.90;;;;;;5035205;28;20049;-78
2024/01/08 10:05:08;;;;;;;9.23;4.63;;;-0.20;99.90;;;;;;5021076;28;20141;-76
2024/01/08 10:07:35;;;;;;;7.50;4.70;;;-0.20;99.90;;;;;;5017142;28;20133;-76
2024/01/08 10:10:03;;;;;;;6.07;3.83;;;-0.20;99.80;;;;;;5010414;28;20095;-77
2024/01/08 10:12:33;;;;;;;6.40;3.97;;;-0.20;99.90;;;;;;5034556;28;20413;-77
2024/01/08 10:15:02;;;;;;;9.07;4.53;;;-0.20;99.80;;;;;;5017882;28;20414;-78
2024/01/08 10:17:30;;;;;;;6.13;3.53;;;-0.20;99.80;;;;;;5027530;28;20037;-76
2024/01/08 10:20:08;;;;;;;8.13;4.10;;;-0.10;99.80;;;;;;5034317;28;20121;-76
2024/01/08 10:22:37;;;;;;;6.63;4.07;;;-0.10;99.70;;;;;;5026018;28;20139;-76
2024/01/08 10:25:06;;;;;;;7.47;4.50;;;0.00;99.60;;;;;;5028982;28;20072;-77
2024/01/08 10:27:33;;;;;;;7.37;4.10;;;0.00;99.50;;;;;;4985883;28;20049;-77
2024/01/08 10:30:01;;;;;;;7.80;4.47;;;0.00;99.40;;;;;;5007333;28;20056;-77
2024/01/08 10:32:28;;;;;;;8.37;5.07;;;0.00;99.30;;;;;;5010889;28;20060;-77
2024/01/08 10:34:58;;;;;;;6.47;4.00;;;0.00;99.20;;;;;;5033224;28;20037;-76
2024/01/08 10:37:26;;;;;;;6.80;3.80;;;0.00;99.10;;;;;;5017990;28;20118;-78
2024/01/08 10:39:55;;;;;;;6.83;4.23;;;0.00;99.10;;;;;;5033912;28;20049;-78
2024/01/08 10:42:23;;;;;;;6.57;4.17;;;-0.10;99.10;;;;;;5034153;28;20496;-77
2024/01/08 10:44:50;;;;;;;7.10;4.70;;;-0.20;99.20;;;;;;5033971;28;20046;-77
2024/01/08 10:47:22;;;;;;;6.87;3.63;;;-0.30;99.30;;;;;;5017424;28;20053;-77
2024/01/08 10:49:57;;;;;;;8.07;3.97;;;-0.30;99.30;;;;;;5033635;28;20076;-77
2024/01/08 10:52:31;;;;;;;6.07;2.90;;;-0.30;99.30;;;;;;5014033;28;20418;-77
2024/01/08 10:55:02;;;;;;;7.27;3.40;;;-0.20;99.40;;;;;;5021940;28;20049;-77
2024/01/08 10:58:00;;;;;;;5.83;3.43;;;-0.10;99.30;;;;;;5001264;28;20486;-76
2024/01/08 11:00:28;;;;;;;5.77;3.17;;;0.10;98.90;;;;;;5030861;28;20053;-77
2024/01/08 11:02:58;;;;;;;7.27;4.43;;;0.10;98.70;;;;;;5033449;28;20414;-77
2024/01/08 11:05:31;;;;;;;6.67;4.07;;;0.20;98.50;;;;;;5008962;28;20419;-77
2024/01/08 11:08:00;;;;;;;7.93;4.20;;;0.10;98.30;;;;;;5030185;28;20152;-77
2024/01/08 11:10:31;;;;;;;6.93;4.00;;;0.20;98.30;;;;;;5014524;28;20041;-76
2024/01/08 11:12:58;;;;;;;6.23;3.73;;;0.20;98.30;;;;;;5014007;28;20096;-77
2024/01/08 11:15:26;;;;;;;6.63;4.10;;;0.20;98.30;;;;;;4993858;28;20046;-77
2024/01/08 11:17:56;;;;;;;6.50;3.10;;;0.30;98.20;;;;;;5028701;28;20503;-76
2024/01/08 11:20:39;;;;;;;6.00;3.50;;;0.30;98.30;;;;;;5001073;28;20053;-77
2024/01/08 11:23:36;;;;;;;6.77;3.60;;;0.40;97.90;;;;;;5022261;28;20103;-76
2024/01/08 11:26:25;;;;;;;6.17;3.20;;;0.40;97.50;;;;;;5047994;28;20046;-77
2024/01/08 11:29:06;;;;;;;5.70;3.30;;;0.40;97.60;;;;;;5006119;28;20077;-77
2024/01/08 11:31:46;;;;;;;5.07;3.13;;;0.50;97.50;;;;;;5013847;28;20049;-76
2024/01/08 11:34:19;;;;;;;6.17;2.80;;;0.50;97.40;;;;;;5027867;28;20050;-77
2024/01/08 11:36:47;;;;;;;5.13;3.10;;;0.60;97.40;;;;;;5028921;28;20172;-75
2024/01/08 11:39:20;;;;;;;5.63;2.97;;;0.60;97.10;;;;;;5019450;28;20121;-76
2024/01/08 11:41:47;;;;;;;6.18;3.20;;;0.60;96.90;;;;;;5016305;28;20049;-77
2024/01/08 11:44:17;;;;;;;5.37;2.90;;;0.50;96.50;;;;;;5000904;28;20042;-77
2024/01/08 11:46:44;;;;;;;6.20;2.90;;;0.50;96.10;;;;;;4986749;28;20084;-77
2024/01/08 11:49:11;;;;;;;4.77;2.57;;;0.30;96.00;;;;;;5027931;28;20133;-78
2024/01/08 11:51:43;;;;;;;5.90;3.27;;;0.20;96.00;;;;;;5012025;28;20057;-78
2024/01/08 11:54:15;;;;;;;4.88;2.47;;;0.10;96.10;;;;;;5028622;28;20042;-77
2024/01/08 11:56:42;;;;;;;4.95;2.25;;;0.10;96.00;;;;;;5022565;28;20049;-78
2024/01/08 11:59:09;;;;;;;5.77;3.00;;;0.00;96.00;;;;;;5016013;28;20037;-76
2024/01/08 12:01:36;;;;;;;5.10;2.40;;;0.00;95.70;;;;;;4999988;28;20041;-77
2024/01/08 12:04:04;;;;;;;5.37;2.73;;;0.00;95.50;;;;;;4983657;28;20045;-77
2024/01/08 12:06:31;;;;;;;4.13;2.03;;;0.00;95.50;;;;;;4978131;28;20048;-78
2024/01/08 12:08:58;;;;;;;5.87;2.30;;;0.00;95.40;;;;;;5008334;28;20050;-78
2024/01/08 12:11:26;;;;;;;5.27;2.00;;;0.00;95.60;;;;;;5032102;28;20084;-79
2024/01/08 12:13:54;;;;;;;5.70;2.20;;;0.00;95.40;;;;;;5016044;28;20107;-78
2024/01/08 12:16:21;;;;;;;5.17;2.20;;;0.00;95.30;;;;;;5032169;28;20049;-79
2024/01/08 12:18:49;;;;;;;5.50;1.80;;;0.00;95.00;;;;;;4985356;28;20073;-79
2024/01/08 12:21:16;;;;;;;4.13;1.87;;;0.00;95.00;;;;;;5009309;28;20042;-81
2024/01/08 12:23:44;;;;;;;4.33;1.80;;;0.10;94.70;;;;;;5015352;28;20457;-78
2024/01/08 12:26:11;;;;;;;4.27;2.10;;;0.10;94.90;;;;;;4998885;28;20095;-76
2024/01/08 12:28:39;;;;;;;3.83;1.77;;;0.10;94.60;;;;;;5012834;28;20125;-77
2024/01/08 12:31:06;;;;;;;4.50;1.73;;;0.10;94.60;;;;;;4993056;28;20099;-76
2024/01/08 12:33:33;;;;;;;3.80;1.40;;;0.10;94.40;;;;;;5003011;28;20108;-77
2024/01/08 12:36:01;;;;;;;4.63;1.60;;;0.20;94.40;;;;;;5000028;28;20131;-77
2024/01/08 12:38:30;;;;;;;3.03;1.27;;;0.10;94.20;;;;;;4978098;28;20041;-78
2024/01/08 12:40:58;;;;;;;4.13;1.53;;;0.10;94.20;;;;;;5026639;28;20049;-78
2024/01/08 12:43:25;;;;;;;5.60;1.47;;;0.10;94.10;;;;;;4990463;28;20050;-77
2024/01/08 12:45:52;;;;;;;2.67;1.20;;;0.20;94.20;;;;;;5009647;28;20045;-78
2024/01/08 12:48:19;;;;;;;5.27;1.73;;;0.20;94.00;;;;;;4999190;28;20046;-78
2024/01/08 12:50:47;;;;;;;4.50;1.67;;;0.20;93.70;;;;;;5015278;28;20140;-76
2024/01/08 12:53:15;;;;;;;3.60;1.70;;;0.20;93.40;;;;;;5015463;28;20091;-77